createdAt,value
2022-09-02T00:01:29.615Z,22.04
2022-09-02T00:04:00.475Z,21.96
2022-09-02T00:06:29.283Z,21.68
2022-09-02T00:08:57.297Z,21.71
2022-09-02T00:11:27.847Z,21.94
2022-09-02T00:13:57.220Z,21.91
2022-09-02T00:16:25.624Z,21.71
2022-09-02T00:18:53.725Z,21.74
2022-09-02T00:21:22.222Z,21.99
2022-09-02T00:23:50.279Z,21.78
2022-09-02T00:26:20.737Z,21.75
2022-09-02T00:28:55.967Z,21.50
2022-09-02T00:31:27.578Z,21.72
2022-09-02T00:33:55.584Z,21.83
2022-09-02T00:36:23.089Z,21.73
2022-09-02T00:38:51.217Z,21.49
2022-09-02T00:41:23.040Z,21.58
2022-09-02T00:43:53.840Z,21.81
2022-09-02T00:46:25.015Z,21.85
2022-09-02T00:49:09.779Z,21.81
2022-09-02T00:51:46.590Z,21.90
2022-09-02T00:54:45.675Z,21.50
2022-09-02T00:57:19.435Z,21.63
2022-09-02T00:59:58.382Z,21.50
2022-09-02T01:02:28.899Z,21.36
2022-09-02T01:04:56.820Z,21.49
2022-09-02T01:07:28.720Z,21.51
2022-09-02T01:09:57.127Z,21.64
2022-09-02T01:12:27.731Z,21.63
2022-09-02T01:14:55.374Z,21.58
2022-09-02T01:17:24.366Z,21.63
2022-09-02T01:20:03.881Z,21.79
2022-09-02T01:22:32.691Z,21.55
2022-09-02T01:25:08.360Z,21.64
2022-09-02T01:27:36.810Z,21.70
2022-09-02T01:30:07.144Z,21.70
2022-09-02T01:32:35.678Z,21.65
2022-09-02T01:35:05.225Z,21.70
2022-09-02T01:37:33.049Z,21.60
2022-09-02T01:40:01.185Z,21.65
2022-09-02T01:42:29.582Z,21.63
2022-09-02T01:44:57.667Z,21.89
2022-09-02T01:47:27.296Z,21.70
2022-09-02T01:49:56.417Z,21.45
2022-09-02T01:52:26.460Z,21.66
2022-09-02T01:54:54.200Z,21.70
2022-09-02T01:57:24.630Z,21.59
2022-09-02T01:59:53.891Z,21.57
2022-09-02T02:02:22.704Z,21.61
2022-09-02T02:04:50.892Z,21.24
2022-09-02T02:07:20.138Z,21.48
2022-09-02T02:09:48.613Z,21.38
2022-09-02T02:12:17.325Z,21.57
2022-09-02T02:14:45.149Z,21.37
2022-09-02T02:17:12.835Z,21.42
2022-09-02T02:19:41.149Z,21.42
2022-09-02T02:22:09.147Z,21.37
2022-09-02T02:24:37.078Z,21.51
2022-09-02T02:27:05.392Z,21.18
2022-09-02T02:29:32.902Z,21.48
2022-09-02T02:32:00.708Z,21.53
2022-09-02T02:34:28.213Z,21.49
2022-09-02T02:36:55.734Z,21.20
2022-09-02T02:39:23.257Z,21.43
2022-09-02T02:41:51.511Z,21.25
2022-09-02T02:44:19.739Z,21.38
2022-09-02T02:46:47.319Z,21.13
2022-09-02T02:49:15.442Z,21.37
2022-09-02T02:51:43.178Z,21.21
2022-09-02T02:54:12.080Z,21.21
2022-09-02T02:56:39.682Z,21.17
2022-09-02T02:59:07.867Z,21.27
2022-09-02T03:01:35.478Z,21.27
2022-09-02T03:04:05.626Z,21.41
2022-09-02T03:06:34.041Z,21.15
2022-09-02T03:09:01.779Z,21.09
2022-09-02T03:11:29.271Z,21.09
2022-09-02T03:13:57.902Z,20.83
2022-09-02T03:16:26.435Z,20.92
2022-09-02T03:18:55.078Z,21.06
2022-09-02T03:21:22.863Z,20.86
2022-09-02T03:23:50.924Z,20.92
2022-09-02T03:26:21.250Z,20.79
2022-09-02T03:28:49.982Z,20.96
2022-09-02T03:33:47.652Z,20.92
2022-09-02T03:36:40.618Z,20.91
2022-09-02T03:39:12.144Z,20.80
2022-09-02T03:41:42.608Z,20.62
2022-09-02T03:44:11.635Z,20.67
2022-09-02T03:46:40.240Z,20.68
2022-09-02T03:49:08.074Z,20.79
2022-09-02T03:51:35.612Z,20.44
2022-09-02T03:54:04.087Z,20.67
2022-09-02T03:56:31.992Z,20.86
2022-09-02T03:59:00.470Z,20.54
2022-09-02T04:01:35.016Z,20.74
2022-09-02T04:04:06.213Z,20.80
2022-09-02T04:06:35.359Z,20.68
2022-09-02T04:09:05.319Z,21.01
2022-09-02T04:11:43.196Z,20.67
2022-09-02T04:14:12.783Z,20.73
2022-09-02T04:16:41.387Z,20.55
2022-09-02T04:19:09.604Z,20.72
2022-09-02T04:21:40.371Z,20.89
2022-09-02T04:24:10.183Z,20.83
2022-09-02T04:26:45.022Z,20.79
2022-09-02T04:29:16.733Z,20.29
2022-09-02T04:31:45.112Z,20.34
2022-09-02T04:34:12.885Z,20.23
2022-09-02T04:36:41.826Z,20.47
2022-09-02T04:39:12.088Z,20.39
2022-09-02T04:41:39.663Z,20.27
2022-09-02T04:44:09.858Z,20.05
2022-09-02T04:46:41.164Z,20.34
2022-09-02T04:49:36.478Z,20.50
2022-09-02T04:52:04.154Z,20.57
2022-09-02T04:54:33.177Z,20.71
2022-09-02T04:57:02.208Z,20.82
2022-09-02T04:59:30.589Z,20.89
2022-09-02T05:02:04.851Z,20.84
2022-09-02T05:07:01.918Z,20.68
2022-09-02T05:09:32.275Z,20.82
2022-09-02T05:12:04.641Z,20.79
2022-09-02T05:15:01.085Z,20.70
2022-09-02T05:17:35.730Z,20.82
2022-09-02T05:20:07.308Z,20.80
2022-09-02T05:22:36.905Z,20.73
2022-09-02T05:25:08.816Z,20.85
2022-09-02T05:27:37.417Z,20.98
2022-09-02T05:30:06.825Z,21.12
2022-09-02T05:32:42.359Z,21.10
2022-09-02T05:35:10.775Z,21.12
2022-09-02T05:37:38.418Z,21.07
2022-09-02T05:40:08.344Z,21.30
2022-09-02T05:42:39.650Z,21.26
2022-09-02T05:45:09.042Z,21.37
2022-09-02T05:47:36.826Z,21.45
2022-09-02T05:50:06.008Z,21.27
2022-09-02T05:52:36.772Z,21.27
2022-09-02T05:55:05.075Z,21.30
2022-09-02T05:57:35.898Z,21.59
2022-09-02T06:00:08.433Z,21.37
2022-09-02T06:02:42.677Z,21.53
2022-09-02T06:05:20.043Z,21.51
2022-09-02T06:07:54.357Z,21.52
2022-09-02T06:10:23.617Z,21.50
2022-09-02T06:12:51.496Z,21.35
2022-09-02T06:15:22.266Z,21.41
2022-09-02T06:17:50.411Z,21.77
2022-09-02T06:20:25.563Z,21.90
2022-09-02T06:22:54.156Z,22.09
2022-09-02T06:25:21.844Z,22.30
2022-09-02T06:27:49.872Z,22.46
2022-09-02T06:30:18.409Z,22.30
2022-09-02T06:32:50.438Z,22.43
2022-09-02T06:35:20.066Z,22.33
2022-09-02T06:37:48.304Z,22.37
2022-09-02T06:40:16.399Z,22.57
2022-09-02T06:42:45.128Z,22.60
2022-09-02T06:45:26.680Z,22.78
2022-09-02T06:47:56.407Z,23.32
2022-09-02T06:50:23.867Z,23.32
2022-09-02T06:52:51.472Z,23.32
2022-09-02T06:55:19.275Z,23.27
2022-09-02T06:57:47.243Z,23.41
2022-09-02T07:00:16.931Z,23.50
2022-09-02T07:03:04.431Z,23.21
2022-09-02T07:05:34.657Z,23.16
2022-09-02T07:08:02.644Z,23.32
2022-09-02T07:10:30.223Z,23.21
2022-09-02T07:12:57.917Z,23.15
2022-09-02T07:15:25.505Z,23.54
2022-09-02T07:17:54.171Z,23.72
2022-09-02T07:20:32.694Z,23.80
2022-09-02T07:23:11.135Z,23.47
2022-09-02T07:25:41.713Z,23.60
2022-09-02T07:28:11.854Z,23.67
2022-09-02T07:30:43.172Z,23.64
2022-09-02T07:33:15.651Z,23.72
2022-09-02T07:35:45.911Z,24.20
2022-09-02T07:38:16.272Z,24.12
2022-09-02T07:40:44.319Z,24.26
2022-09-02T07:43:12.626Z,24.35
2022-09-02T07:45:43.691Z,24.58
2022-09-02T07:48:11.976Z,24.50
2022-09-02T07:50:39.397Z,24.41
2022-09-02T07:53:11.639Z,24.78
2022-09-02T07:55:41.418Z,24.98
2022-09-02T07:58:11.473Z,25.56
2022-09-02T08:00:44.188Z,25.20
2022-09-02T08:03:12.723Z,24.85
2022-09-02T08:05:47.185Z,25.11
2022-09-02T08:08:17.704Z,25.70
2022-09-02T08:10:46.094Z,25.53
2022-09-02T08:13:13.744Z,25.31
2022-09-02T08:15:41.436Z,25.31
2022-09-02T08:18:08.908Z,25.59
2022-09-02T08:20:47.356Z,25.47
2022-09-02T08:23:25.587Z,25.34
2022-09-02T08:26:03.123Z,24.97
2022-09-02T08:28:32.133Z,24.41
2022-09-02T08:30:59.960Z,24.67
2022-09-02T08:33:27.449Z,24.94
2022-09-02T08:35:54.881Z,25.33
2022-09-02T08:38:22.689Z,24.98
2022-09-02T08:40:52.046Z,25.46
2022-09-02T08:43:38.396Z,25.55
2022-09-02T08:46:11.332Z,26.02
2022-09-02T08:48:41.380Z,25.91
2022-09-02T08:51:16.237Z,25.70
2022-09-02T08:54:39.823Z,26.34
2022-09-02T08:57:09.436Z,26.33
2022-09-02T08:59:38.219Z,25.92
2022-09-02T09:02:25.860Z,26.03
2022-09-02T09:05:20.899Z,26.23
2022-09-02T09:07:57.578Z,26.29
2022-09-02T09:10:31.220Z,26.54
2022-09-02T09:12:58.680Z,26.53
2022-09-02T09:15:52.253Z,26.97
2022-09-02T09:21:40.888Z,27.52
2022-09-02T09:24:35.046Z,27.31
2022-09-02T09:27:06.281Z,27.30
2022-09-02T09:29:34.312Z,26.96
2022-09-02T09:32:02.543Z,27.31
2022-09-02T09:35:11.906Z,26.95
2022-09-02T09:37:50.169Z,26.82
2022-09-02T09:40:23.220Z,26.93
2022-09-02T09:43:07.038Z,26.96
2022-09-02T09:45:50.054Z,26.75
2022-09-02T09:48:22.617Z,26.75
2022-09-02T09:50:55.983Z,26.58
2022-09-02T09:53:28.071Z,26.19
2022-09-02T09:56:13.785Z,26.40
2022-09-02T09:58:41.159Z,27.02
2022-09-02T10:01:23.449Z,27.35
2022-09-02T10:03:54.357Z,27.10
2022-09-02T10:06:43.786Z,27.31
2022-09-02T10:09:35.842Z,27.81
2022-09-02T10:12:13.724Z,27.73
2022-09-02T10:14:49.543Z,27.79
2022-09-02T10:17:24.133Z,28.43
2022-09-02T10:20:07.248Z,27.80
2022-09-02T10:22:59.691Z,28.28
2022-09-02T10:25:50.077Z,28.50
2022-09-02T10:28:58.091Z,27.92
2022-09-02T10:31:36.158Z,28.54
2022-09-02T10:34:28.875Z,27.71
2022-09-02T10:37:25.014Z,28.24
2022-09-02T10:40:20.578Z,28.18
2022-09-02T10:43:08.103Z,27.76
2022-09-02T10:45:42.095Z,27.59
2022-09-02T10:48:35.051Z,27.73
2022-09-02T10:52:02.119Z,27.56
2022-09-02T10:54:38.662Z,27.70
2022-09-02T10:57:26.499Z,27.76
2022-09-02T11:00:10.831Z,27.52
2022-09-02T11:02:45.289Z,27.57
2022-09-02T11:05:20.247Z,28.22
2022-09-02T11:07:54.292Z,28.31
2022-09-02T11:10:31.326Z,27.64
2022-09-02T11:13:08.087Z,28.15
2022-09-02T11:15:47.528Z,27.95
2022-09-02T11:18:28.069Z,27.91
2022-09-02T11:21:10.486Z,27.65
2022-09-02T11:24:05.934Z,28.38
2022-09-02T11:26:43.205Z,28.81
2022-09-02T11:29:37.249Z,29.42
2022-09-02T11:32:18.506Z,29.03
2022-09-02T11:34:52.382Z,28.92
2022-09-02T11:37:40.361Z,29.35
2022-09-02T11:40:34.947Z,28.88
2022-09-02T11:43:15.180Z,28.52
2022-09-02T11:45:57.982Z,27.99
2022-09-02T11:48:50.886Z,28.15
2022-09-02T11:51:46.266Z,27.78
2022-09-02T11:54:18.634Z,27.98
2022-09-02T11:56:50.449Z,28.04
2022-09-02T11:59:52.547Z,28.34
2022-09-02T12:02:45.363Z,29.58
2022-09-02T12:05:31.916Z,29.98
2022-09-02T12:08:41.138Z,29.78
2022-09-02T12:11:52.223Z,30.09
2022-09-02T12:14:25.223Z,29.70
2022-09-02T12:17:03.807Z,29.92
2022-09-02T12:19:43.701Z,30.85
2022-09-02T12:22:17.244Z,28.98
2022-09-02T12:24:51.037Z,29.18
2022-09-02T12:27:42.652Z,28.91
2022-09-02T12:30:12.856Z,29.32
2022-09-02T12:32:46.456Z,30.02
2022-09-02T12:35:34.946Z,30.27
2022-09-02T12:38:10.569Z,29.90
2022-09-02T12:40:56.996Z,29.94
2022-09-02T12:43:45.048Z,28.82
2022-09-02T12:46:34.858Z,29.25
2022-09-02T12:49:44.614Z,29.89
2022-09-02T12:52:33.322Z,30.24
2022-09-02T12:55:16.904Z,29.44
2022-09-02T12:57:47.423Z,30.36
2022-09-02T13:00:24.717Z,30.85
2022-09-02T13:03:12.414Z,31.11
2022-09-02T13:06:01.274Z,30.56
2022-09-02T13:08:50.607Z,29.08
2022-09-02T13:11:39.803Z,29.70
2022-09-02T13:14:33.096Z,30.52
2022-09-02T13:17:36.448Z,30.00
2022-09-02T13:20:04.598Z,29.50
2022-09-02T13:23:01.917Z,30.23
2022-09-02T13:25:50.884Z,30.51
2022-09-02T13:28:39.624Z,30.32
2022-09-02T13:31:26.210Z,31.02
2022-09-02T13:34:05.391Z,31.26
2022-09-02T13:36:51.284Z,31.70
2022-09-02T13:39:27.433Z,32.06
2022-09-02T13:41:55.359Z,32.45
2022-09-02T13:44:31.626Z,33.19
2022-09-02T13:47:05.100Z,33.34
2022-09-02T13:49:37.939Z,33.03
2022-09-02T13:52:12.149Z,31.88
2022-09-02T13:54:56.351Z,32.33
2022-09-02T13:57:26.357Z,32.67
2022-09-02T13:59:56.727Z,32.57
2022-09-02T14:02:37.104Z,32.75
2022-09-02T14:05:16.430Z,31.39
2022-09-02T14:07:47.079Z,31.86
2022-09-02T14:10:22.271Z,31.79
2022-09-02T14:12:51.178Z,32.41
2022-09-02T14:15:26.862Z,31.15
2022-09-02T14:18:09.579Z,32.00
2022-09-02T14:20:38.346Z,33.76
2022-09-02T14:23:05.972Z,39.58
2022-09-02T14:25:39.148Z,42.61
2022-09-02T14:28:18.241Z,43.21
2022-09-02T14:31:01.403Z,42.99
2022-09-02T14:33:39.937Z,44.93
2022-09-02T14:36:21.283Z,43.38
2022-09-02T14:38:48.671Z,45.28
2022-09-02T14:41:36.071Z,46.61
2022-09-02T14:44:15.305Z,47.75
2022-09-02T14:46:50.368Z,46.43
2022-09-02T14:49:22.727Z,46.65
2022-09-02T14:51:59.430Z,46.43
2022-09-02T14:54:39.801Z,47.20
2022-09-02T14:57:20.399Z,46.02
2022-09-02T14:59:48.889Z,46.46
2022-09-02T15:02:28.468Z,47.17
2022-09-02T15:04:57.858Z,47.93
2022-09-02T15:07:25.939Z,48.74
2022-09-02T15:09:53.743Z,50.85
2022-09-02T15:12:29.956Z,49.41
2022-09-02T15:14:58.494Z,50.86
2022-09-02T15:17:27.107Z,48.15
2022-09-02T15:19:54.540Z,50.38
2022-09-02T15:22:24.238Z,49.59
2022-09-02T15:24:53.132Z,48.95
2022-09-02T15:27:21.903Z,49.79
2022-09-02T15:30:12.943Z,51.19
2022-09-02T15:32:40.991Z,50.31
2022-09-02T15:35:09.297Z,48.40
2022-09-02T15:37:38.137Z,49.13
2022-09-02T15:40:08.436Z,46.73
2022-09-02T15:42:39.460Z,48.36
2022-09-02T15:45:11.284Z,47.41
2022-09-02T15:47:45.764Z,49.00
2022-09-02T15:50:39.491Z,47.85
2022-09-02T15:53:07.055Z,46.84
2022-09-02T15:55:34.932Z,49.19
2022-09-02T15:58:02.333Z,46.74
2022-09-02T16:00:32.072Z,47.47
2022-09-02T16:03:00.898Z,48.35
2022-09-02T16:05:28.372Z,49.28
2022-09-02T16:07:55.947Z,48.86
2022-09-02T16:10:23.355Z,47.20
2022-09-02T16:12:53.446Z,44.39
2022-09-02T16:15:21.080Z,39.80
2022-09-02T16:17:51.163Z,42.45
2022-09-02T16:20:21.217Z,44.77
2022-09-02T16:22:49.447Z,42.25
2022-09-02T16:25:16.933Z,43.86
2022-09-02T16:27:53.369Z,41.12
2022-09-02T16:30:21.412Z,37.13
2022-09-02T16:32:51.554Z,37.22
2022-09-02T16:35:19.105Z,37.95
2022-09-02T16:37:46.637Z,35.30
2022-09-02T16:40:21.423Z,34.35
2022-09-02T16:42:49.835Z,33.74
2022-09-02T16:45:17.297Z,32.16
2022-09-02T16:47:44.739Z,32.40
2022-09-02T16:50:12.692Z,30.58
2022-09-02T16:52:41.155Z,30.86
2022-09-02T16:55:09.018Z,31.22
2022-09-02T16:57:36.477Z,30.66
2022-09-02T17:00:05.188Z,29.68
2022-09-02T17:02:32.692Z,29.56
2022-09-02T17:05:00.267Z,29.50
2022-09-02T17:07:27.711Z,29.59
2022-09-02T17:09:55.452Z,29.27
2022-09-02T17:12:22.992Z,29.34
2022-09-02T17:14:50.443Z,29.02
2022-09-02T17:17:17.982Z,28.96
2022-09-02T17:19:45.451Z,28.77
2022-09-02T17:22:12.876Z,28.49
2022-09-02T17:24:53.727Z,28.37
2022-09-02T17:27:21.359Z,28.27
2022-09-02T17:29:49.800Z,28.00
2022-09-02T17:32:18.802Z,27.95
2022-09-02T17:34:46.764Z,27.83
2022-09-02T17:37:14.277Z,27.91
2022-09-02T17:39:41.837Z,27.73
2022-09-02T17:42:09.377Z,27.56
2022-09-02T17:44:39.614Z,27.56
2022-09-02T17:47:11.663Z,27.74
2022-09-02T17:49:44.476Z,27.79
2022-09-02T17:52:15.602Z,27.75
2022-09-02T17:54:43.474Z,27.57
2022-09-02T17:57:32.757Z,27.40
2022-09-02T18:00:06.819Z,27.47
2022-09-02T18:02:35.658Z,27.36
2022-09-02T18:05:28.417Z,27.36
2022-09-02T18:08:05.912Z,27.28
2022-09-02T18:10:36.084Z,27.13
2022-09-02T18:13:08.025Z,27.01
2022-09-02T18:15:49.811Z,26.74
2022-09-02T18:18:17.784Z,27.26
2022-09-02T18:20:53.618Z,26.68
2022-09-02T18:23:29.729Z,26.84
2022-09-02T18:26:33.385Z,26.83
2022-09-02T18:29:52.859Z,26.79
2022-09-02T18:32:29.280Z,26.50
2022-09-02T18:35:26.123Z,26.48
2022-09-02T18:38:04.320Z,26.32
2022-09-02T18:40:37.719Z,26.39
2022-09-02T18:43:20.853Z,26.63
2022-09-02T18:45:54.660Z,26.58
2022-09-02T18:48:32.563Z,26.36
2022-09-02T18:51:35.478Z,26.39
2022-09-02T18:54:15.932Z,26.64
2022-09-02T18:56:51.861Z,26.77
2022-09-02T19:00:11.833Z,27.07
2022-09-02T19:02:49.138Z,26.92
2022-09-02T19:05:23.331Z,26.68
2022-09-02T19:08:23.215Z,26.76
2022-09-02T19:11:01.579Z,26.28
2022-09-02T19:13:51.613Z,26.37
2022-09-02T19:16:22.617Z,26.10
2022-09-02T19:18:51.039Z,26.02
2022-09-02T19:21:36.411Z,25.96
2022-09-02T19:24:07.698Z,25.86
2022-09-02T19:26:35.959Z,25.67
2022-09-02T19:29:05.119Z,25.80
2022-09-02T19:31:32.968Z,25.58
2022-09-02T19:34:03.544Z,25.49
2022-09-02T19:36:33.095Z,25.73
2022-09-02T19:39:00.524Z,25.92
2022-09-02T19:41:28.153Z,25.89
2022-09-02T19:43:55.695Z,25.87
2022-09-02T19:47:04.055Z,25.93
2022-09-02T19:49:10.909Z,25.87
2022-09-02T19:51:38.373Z,25.83
2022-09-02T19:54:05.865Z,26.09
2022-09-02T19:56:33.341Z,25.76
2022-09-02T19:59:00.935Z,25.75
2022-09-02T20:01:28.392Z,25.61
2022-09-02T20:03:55.917Z,25.50
2022-09-02T20:06:23.487Z,25.53
2022-09-02T20:08:51.727Z,25.35
2022-09-02T20:11:19.239Z,25.35
2022-09-02T20:13:46.744Z,25.24
2022-09-02T20:16:21.906Z,25.13
2022-09-02T20:18:51.884Z,24.79
2022-09-02T20:21:26.581Z,25.12
2022-09-02T20:24:09.361Z,25.45
2022-09-02T20:26:46.669Z,25.40
2022-09-02T20:29:35.841Z,25.17
2022-09-02T20:32:38.593Z,24.59
2022-09-02T20:35:21.225Z,24.90
2022-09-02T20:37:54.359Z,24.99
2022-09-02T20:40:22.657Z,24.90
2022-09-02T20:43:20.834Z,24.67
2022-09-02T20:45:58.331Z,24.45
2022-09-02T20:48:34.726Z,25.03
2022-09-02T20:51:05.020Z,24.97
2022-09-02T20:53:56.545Z,25.07
2022-09-02T20:56:45.970Z,25.01
2022-09-02T20:59:26.757Z,24.60
2022-09-02T21:01:57.662Z,24.78
2022-09-02T21:04:25.107Z,24.32
2022-09-02T21:07:01.531Z,24.58
2022-09-02T21:09:38.625Z,24.66
2022-09-02T21:12:36.182Z,24.66
2022-09-02T21:15:27.471Z,24.60
2022-09-02T21:18:13.742Z,24.45
2022-09-02T21:20:51.001Z,24.55
2022-09-02T21:23:35.301Z,24.52
2022-09-02T21:26:49.142Z,24.33
2022-09-02T21:29:38.404Z,24.59
2022-09-02T21:32:09.524Z,24.68
2022-09-02T21:35:09.641Z,24.69
2022-09-02T21:37:39.871Z,24.56
2022-09-02T21:40:13.214Z,24.73
2022-09-02T21:42:55.930Z,25.00
2022-09-02T21:45:37.447Z,24.86
2022-09-02T21:48:35.104Z,24.92
2022-09-02T21:51:17.178Z,24.59
2022-09-02T21:53:57.951Z,24.42
2022-09-02T21:56:41.595Z,24.72
2022-09-02T21:59:22.615Z,24.60
2022-09-02T22:01:59.757Z,24.56
2022-09-02T22:05:07.852Z,24.47
2022-09-02T22:07:44.432Z,24.34
2022-09-02T22:10:27.102Z,24.31
2022-09-02T22:12:58.706Z,24.44
2022-09-02T22:15:56.582Z,24.57
2022-09-02T22:18:31.093Z,24.44
2022-09-02T22:21:02.639Z,24.49
2022-09-02T22:23:31.015Z,24.51
2022-09-02T22:26:19.285Z,24.49
2022-09-02T22:28:52.918Z,24.65
2022-09-02T22:31:26.100Z,24.61
2022-09-02T22:33:58.715Z,24.04
2022-09-02T22:36:45.380Z,24.38
2022-09-02T22:39:17.310Z,24.57
2022-09-02T22:42:05.184Z,24.54
2022-09-02T22:45:02.970Z,24.55
2022-09-02T22:47:53.131Z,24.32
2022-09-02T22:50:45.486Z,23.57
2022-09-02T22:53:17.164Z,22.16
2022-09-02T22:56:11.625Z,21.84
2022-09-02T22:58:59.816Z,21.37
2022-09-02T23:01:40.342Z,21.31
2022-09-02T23:04:22.929Z,21.03
2022-09-02T23:06:55.122Z,21.24
2022-09-02T23:09:22.635Z,21.54
2022-09-02T23:12:26.913Z,20.66
2022-09-02T23:15:22.952Z,20.78
2022-09-02T23:18:03.950Z,20.92
2022-09-02T23:20:59.426Z,21.22
2022-09-02T23:23:39.309Z,21.88
2022-09-02T23:26:09.915Z,21.95
2022-09-02T23:28:43.240Z,21.88
2022-09-02T23:31:53.085Z,21.70
2022-09-02T23:34:46.871Z,21.83
2022-09-02T23:37:26.874Z,21.33
2022-09-02T23:40:11.528Z,21.40
2022-09-02T23:42:39.448Z,21.06
2022-09-02T23:45:22.097Z,21.49
2022-09-02T23:48:20.744Z,21.23
2022-09-02T23:50:49.055Z,21.14
2022-09-02T23:54:08.006Z,21.12
2022-09-02T23:56:46.788Z,20.96
2022-09-02T23:59:20.094Z,21.36
